Time;durP1;ratioP1;P1;durP2;ratioP2;P2;SDS_P1;SDS_P2;PMS_P1;PMS_P2;Temp;Humidity;BMP_temperature;BMP_pressure;BME280_temperature;BME280_humidity;BME280_pressure;Samples;Min_cycle;Max_cycle;Signal;HPM_P1;HPM_P2
2022/12/09 00:01:18;;;;;;;38.80;23.20;;;;;;;;;;5033404;28;20073;-73
2022/12/09 00:03:44;;;;;;;37.72;23.17;;;;;;;;;;5035520;28;20037;-73
2022/12/09 00:06:15;;;;;;;33.00;21.17;;;;;;;;;;5031512;28;20087;-73
2022/12/09 00:08:41;;;;;;;31.83;20.65;;;;;;;;;;5034903;28;20117;-74
2022/12/09 00:11:07;;;;;;;38.15;22.83;;;;;;;;;;5033506;28;20033;-73
2022/12/09 00:13:34;;;;;;;30.48;20.45;;;;;;;;;;5028707;28;20045;-74
2022/12/09 00:16:00;;;;;;;32.67;20.27;;;;;;;;;;5034213;28;20067;-73
2022/12/09 00:18:26;;;;;;;31.42;20.17;;;;;;;;;;5036728;28;20056;-73
2022/12/09 00:20:52;;;;;;;33.60;22.42;;;;;;;;;;5036505;28;20065;-73
2022/12/09 00:23:18;;;;;;;34.67;21.92;;;;;;;;;;5033088;28;20033;-73
2022/12/09 00:25:44;;;;;;;36.28;21.50;;;;;;;;;;5037609;28;20448;-73
2022/12/09 00:28:10;;;;;;;32.42;20.63;;;;;;;;;;5039936;28;20488;-73
2022/12/09 00:30:36;;;;;;;31.70;20.05;;;;;;;;;;5030642;28;20061;-73
2022/12/09 00:33:02;;;;;;;30.98;20.40;;;;;;;;;;5031883;28;20036;-73
2022/12/09 00:35:28;;;;;;;30.77;21.40;;;;;;;;;;5041573;28;20867;-73
2022/12/09 00:37:54;;;;;;;35.30;22.70;;;;;;;;;;5042727;28;20041;-73
2022/12/09 00:40:20;;;;;;;33.97;22.38;;;;;;;;;;5041380;28;20033;-73
2022/12/09 00:42:46;;;;;;;39.22;23.63;;;;;;;;;;5032180;28;20029;-73
2022/12/09 00:45:12;;;;;;;34.38;23.00;;;;;;;;;;5040365;28;20033;-73
2022/12/09 00:47:38;;;;;;;40.50;25.15;;;;;;;;;;5038418;28;20038;-73
2022/12/09 00:50:05;;;;;;;33.75;21.20;;;;;;;;;;5036340;28;20164;-73
2022/12/09 00:52:31;;;;;;;35.90;22.33;;;;;;;;;;5035127;28;20120;-73
2022/12/09 00:54:57;;;;;;;40.22;24.38;;;;;;;;;;5033899;28;20025;-73
2022/12/09 00:57:23;;;;;;;35.22;22.77;;;;;;;;;;5038998;28;20392;-73
2022/12/09 00:59:49;;;;;;;38.63;22.42;;;;;;;;;;5034873;28;20040;-73
2022/12/09 01:02:15;;;;;;;37.22;21.88;;;;;;;;;;5037772;28;20492;-73
2022/12/09 01:04:41;;;;;;;36.00;21.27;;;;;;;;;;5037048;28;20055;-73
2022/12/09 01:07:09;;;;;;;38.42;23.80;;;;;;;;;;5034022;28;20109;-73
2022/12/09 01:09:35;;;;;;;39.45;22.50;;;;;;;;;;5039638;28;20585;-73
2022/12/09 01:12:02;;;;;;;40.75;23.77;;;;;;;;;;5040612;28;20116;-73
2022/12/09 01:14:29;;;;;;;36.45;22.33;;;;;;;;;;5032414;28;20022;-73
2022/12/09 01:16:55;;;;;;;34.85;21.85;;;;;;;;;;5042274;28;20044;-73
2022/12/09 01:19:20;;;;;;;36.80;23.60;;;;;;;;;;5039552;28;20029;-74
2022/12/09 01:21:46;;;;;;;39.30;24.90;;;;;;;;;;5034947;28;20121;-73
2022/12/09 01:24:13;;;;;;;40.78;22.48;;;;;;;;;;5036139;28;20570;-73
2022/12/09 01:26:39;;;;;;;35.55;22.67;;;;;;;;;;5033288;28;20041;-73
2022/12/09 01:29:05;;;;;;;38.90;25.00;;;;;;;;;;5041076;28;20539;-73
2022/12/09 01:31:31;;;;;;;36.35;23.42;;;;;;;;;;5030486;28;20034;-73
2022/12/09 01:33:57;;;;;;;37.72;23.55;;;;;;;;;;5040431;28;20460;-73
2022/12/09 01:36:26;;;;;;;37.72;22.17;;;;;;;;;;5031016;28;20041;-73
2022/12/09 01:38:52;;;;;;;38.95;23.27;;;;;;;;;;5034713;28;20079;-73
2022/12/09 01:41:18;;;;;;;41.15;22.63;;;;;;;;;;5034355;28;20484;-73
2022/12/09 01:43:44;;;;;;;42.72;26.55;;;;;;;;;;5039700;28;20029;-73
2022/12/09 01:46:10;;;;;;;38.47;25.77;;;;;;;;;;5038943;28;20048;-74
2022/12/09 01:48:38;;;;;;;44.17;26.85;;;;;;;;;;4989260;28;1236980;-73
2022/12/09 01:51:08;;;;;;;38.70;23.98;;;;;;;;;;5030057;28;20025;-73
2022/12/09 01:53:37;;;;;;;47.83;27.45;;;;;;;;;;5036702;28;20511;-73
2022/12/09 01:56:06;;;;;;;46.03;26.63;;;;;;;;;;5036351;28;20116;-73
2022/12/09 01:58:32;;;;;;;35.85;23.73;;;;;;;;;;5038193;28;20587;-73
2022/12/09 02:00:58;;;;;;;36.40;22.25;;;;;;;;;;5038636;28;20388;-73
2022/12/09 02:03:24;;;;;;;38.78;23.88;;;;;;;;;;5037536;28;20036;-73
2022/12/09 02:05:50;;;;;;;40.70;24.10;;;;;;;;;;5035377;28;20040;-73
2022/12/09 02:08:17;;;;;;;41.33;25.80;;;;;;;;;;5034574;28;20479;-73
2022/12/09 02:10:55;;;;;;;37.33;22.98;;;;;;;;;;5042318;28;20397;-73
2022/12/09 02:13:40;;;;;;;40.25;23.85;;;;;;;;;;5035190;28;20163;-73
2022/12/09 02:16:08;;;;;;;37.90;23.45;;;;;;;;;;5038460;28;20037;-73
2022/12/09 02:18:34;;;;;;;40.88;24.70;;;;;;;;;;5037559;28;20041;-73
2022/12/09 02:21:01;;;;;;;39.95;23.35;;;;;;;;;;5038524;28;20495;-72
2022/12/09 02:23:32;;;;;;;33.20;21.13;;;;;;;;;;5038470;28;20041;-73
2022/12/09 02:26:17;;;;;;;41.67;24.38;;;;;;;;;;5035649;28;20044;-73
2022/12/09 02:28:49;;;;;;;40.28;25.10;;;;;;;;;;5032245;28;20719;-73
2022/12/09 02:31:34;;;;;;;44.88;29.17;;;;;;;;;;5038609;28;20116;-73
2022/12/09 02:34:06;;;;;;;36.90;22.42;;;;;;;;;;5030023;28;20041;-73
2022/12/09 02:36:47;;;;;;;38.78;23.35;;;;;;;;;;5031681;28;20082;-73
2022/12/09 02:39:13;;;;;;;39.70;22.75;;;;;;;;;;5037054;28;20389;-73
2022/12/09 02:41:40;;;;;;;38.22;22.67;;;;;;;;;;5035258;28;20029;-73
2022/12/09 02:44:10;;;;;;;36.03;23.60;;;;;;;;;;5033082;28;20040;-73
2022/12/09 02:46:37;;;;;;;42.90;27.20;;;;;;;;;;5035950;28;20596;-73
2022/12/09 02:49:03;;;;;;;42.13;27.70;;;;;;;;;;5036417;28;20068;-73
2022/12/09 02:51:30;;;;;;;43.65;27.88;;;;;;;;;;5039000;28;20427;-73
2022/12/09 02:54:03;;;;;;;40.35;25.33;;;;;;;;;;5036870;28;20029;-73
2022/12/09 02:56:29;;;;;;;41.40;22.75;;;;;;;;;;5033485;28;20056;-73
2022/12/09 02:58:55;;;;;;;36.50;23.13;;;;;;;;;;5030773;28;20026;-73
2022/12/09 03:01:31;;;;;;;43.42;27.45;;;;;;;;;;5039252;28;20033;-73
2022/12/09 03:03:57;;;;;;;43.33;26.83;;;;;;;;;;5033189;28;20112;-73
2022/12/09 03:06:26;;;;;;;43.40;26.90;;;;;;;;;;5033597;28;20039;-73
2022/12/09 03:08:58;;;;;;;37.03;23.17;;;;;;;;;;5038223;28;20021;-73
2022/12/09 03:11:24;;;;;;;44.08;25.95;;;;;;;;;;5020191;28;20116;-73
2022/12/09 03:13:55;;;;;;;49.45;27.90;;;;;;;;;;5034582;28;20076;-74
2022/12/09 03:16:30;;;;;;;40.15;23.20;;;;;;;;;;5037896;28;20037;-73
2022/12/09 03:19:00;;;;;;;38.20;24.15;;;;;;;;;;5028741;28;20033;-73
2022/12/09 03:21:27;;;;;;;38.97;23.77;;;;;;;;;;5034547;28;20037;-73
2022/12/09 03:23:55;;;;;;;39.75;24.30;;;;;;;;;;5033574;28;20166;-73
2022/12/09 03:26:24;;;;;;;42.38;26.63;;;;;;;;;;5035840;28;20119;-73
2022/12/09 03:28:51;;;;;;;34.60;22.60;;;;;;;;;;5037177;28;20025;-73
2022/12/09 03:31:19;;;;;;;39.85;25.13;;;;;;;;;;5030251;28;20107;-73
2022/12/09 03:33:47;;;;;;;36.55;23.00;;;;;;;;;;5034220;28;20064;-73
2022/12/09 03:36:13;;;;;;;34.53;22.65;;;;;;;;;;5036313;28;20041;-74
2022/12/09 03:38:40;;;;;;;40.03;26.15;;;;;;;;;;5035829;28;20072;-73
2022/12/09 03:41:10;;;;;;;38.05;23.50;;;;;;;;;;5032512;28;20116;-73
2022/12/09 03:43:40;;;;;;;39.55;23.13;;;;;;;;;;5035612;28;20035;-73
2022/12/09 03:46:06;;;;;;;38.92;24.88;;;;;;;;;;5033008;28;20107;-73
2022/12/09 03:48:32;;;;;;;36.63;23.70;;;;;;;;;;5036666;28;20040;-73
2022/12/09 03:51:00;;;;;;;38.10;24.05;;;;;;;;;;5034111;28;20050;-74
2022/12/09 03:53:33;;;;;;;38.35;23.20;;;;;;;;;;5034195;28;20030;-73
2022/12/09 03:56:02;;;;;;;37.80;23.65;;;;;;;;;;5033540;28;20794;-73
2022/12/09 03:58:31;;;;;;;34.22;22.70;;;;;;;;;;5031973;28;20075;-73
2022/12/09 04:00:57;;;;;;;35.00;22.17;;;;;;;;;;5031055;28;20547;-73
2022/12/09 04:03:23;;;;;;;35.33;23.30;;;;;;;;;;5029735;28;20037;-73
2022/12/09 04:05:49;;;;;;;37.53;23.50;;;;;;;;;;5033074;28;20038;-73
2022/12/09 04:08:15;;;;;;;35.03;22.75;;;;;;;;;;5038623;28;20044;-73
2022/12/09 04:10:41;;;;;;;49.65;28.98;;;;;;;;;;5040368;28;20120;-73
2022/12/09 04:13:07;;;;;;;31.63;21.45;;;;;;;;;;5037034;28;20025;-73
2022/12/09 04:15:33;;;;;;;39.40;25.30;;;;;;;;;;5037176;28;20037;-73
2022/12/09 04:17:59;;;;;;;34.85;21.25;;;;;;;;;;5037486;28;20060;-73
2022/12/09 04:20:25;;;;;;;32.88;21.88;;;;;;;;;;5040240;28;20064;-74
2022/12/09 04:22:51;;;;;;;40.28;23.38;;;;;;;;;;5041356;28;20025;-73
2022/12/09 04:25:17;;;;;;;39.13;25.10;;;;;;;;;;5035960;28;20087;-73
2022/12/09 04:27:43;;;;;;;45.90;29.33;;;;;;;;;;5033941;28;20041;-73
2022/12/09 04:30:09;;;;;;;33.47;21.58;;;;;;;;;;5038739;28;20029;-73
2022/12/09 04:32:35;;;;;;;38.05;23.08;;;;;;;;;;5036008;28;20559;-74
2022/12/09 04:35:01;;;;;;;37.95;25.33;;;;;;;;;;5041867;28;20487;-73
2022/12/09 04:37:27;;;;;;;46.67;29.05;;;;;;;;;;5039141;28;20057;-74
2022/12/09 04:39:53;;;;;;;46.03;28.73;;;;;;;;;;5039690;28;20029;-73
2022/12/09 04:42:19;;;;;;;37.90;24.50;;;;;;;;;;5035036;28;20079;-73
2022/12/09 04:44:45;;;;;;;32.53;22.10;;;;;;;;;;5036111;28;20041;-73
2022/12/09 04:47:11;;;;;;;31.40;21.23;;;;;;;;;;5039768;28;20025;-73
2022/12/09 04:49:37;;;;;;;35.83;23.08;;;;;;;;;;5037777;28;20053;-74
2022/12/09 04:52:03;;;;;;;34.83;22.27;;;;;;;;;;5037424;28;20029;-73
2022/12/09 04:54:29;;;;;;;37.85;23.10;;;;;;;;;;5035925;28;20100;-73
2022/12/09 04:56:55;;;;;;;38.33;24.48;;;;;;;;;;5036117;28;20037;-73
2022/12/09 04:59:21;;;;;;;30.83;20.77;;;;;;;;;;5038798;28;20036;-73
2022/12/09 05:01:47;;;;;;;32.60;20.13;;;;;;;;;;5040404;28;20445;-73
2022/12/09 05:04:13;;;;;;;30.48;21.08;;;;;;;;;;5036311;28;20069;-73
2022/12/09 05:06:39;;;;;;;29.42;19.40;;;;;;;;;;5034372;28;20064;-73
2022/12/09 05:09:09;;;;;;;29.65;20.30;;;;;;;;;;5032965;28;20114;-73
2022/12/09 05:11:35;;;;;;;30.52;20.52;;;;;;;;;;5035266;28;20183;-73
2022/12/09 05:14:01;;;;;;;29.88;19.27;;;;;;;;;;5033152;28;20456;-73
2022/12/09 05:16:27;;;;;;;31.13;21.17;;;;;;;;;;5041659;28;20140;-73
2022/12/09 05:18:53;;;;;;;30.38;18.42;;;;;;;;;;5038912;28;20112;-73
2022/12/09 05:21:20;;;;;;;25.55;18.45;;;;;;;;;;5032242;28;20044;-73
2022/12/09 05:23:46;;;;;;;30.27;20.48;;;;;;;;;;5030678;28;20021;-73
2022/12/09 05:26:14;;;;;;;32.75;23.17;;;;;;;;;;5035313;28;20464;-74
2022/12/09 05:28:41;;;;;;;31.15;22.77;;;;;;;;;;5032976;28;20056;-73
2022/12/09 05:31:09;;;;;;;27.27;19.42;;;;;;;;;;5037685;28;20049;-73
2022/12/09 05:33:36;;;;;;;29.38;20.13;;;;;;;;;;5038943;28;20061;-73
2022/12/09 05:36:02;;;;;;;28.50;20.35;;;;;;;;;;5036945;28;20079;-74
2022/12/09 05:38:28;;;;;;;23.80;17.05;;;;;;;;;;5032223;28;20033;-74
2022/12/09 05:40:54;;;;;;;26.40;17.70;;;;;;;;;;5035837;28;20777;-73
2022/12/09 05:43:20;;;;;;;24.77;17.60;;;;;;;;;;5040072;28;20071;-73
2022/12/09 05:45:46;;;;;;;26.17;19.45;;;;;;;;;;5037727;28;20036;-73
2022/12/09 05:48:12;;;;;;;25.30;17.52;;;;;;;;;;5035120;28;20029;-73
2022/12/09 05:50:38;;;;;;;30.75;19.55;;;;;;;;;;5036361;28;20060;-73
2022/12/09 05:53:04;;;;;;;31.02;20.13;;;;;;;;;;5032513;28;20112;-73
2022/12/09 05:55:30;;;;;;;30.60;21.00;;;;;;;;;;5039657;28;20111;-73
2022/12/09 05:57:56;;;;;;;27.92;17.13;;;;;;;;;;5040878;28;20071;-73
2022/12/09 06:00:22;;;;;;;24.25;16.73;;;;;;;;;;5037498;28;20072;-73
2022/12/09 06:02:48;;;;;;;26.48;16.75;;;;;;;;;;5034725;28;20040;-73
2022/12/09 06:05:14;;;;;;;23.23;16.42;;;;;;;;;;5035268;28;20033;-73
2022/12/09 06:07:40;;;;;;;32.67;19.50;;;;;;;;;;5038062;28;20547;-73
2022/12/09 06:10:06;;;;;;;26.27;18.55;;;;;;;;;;5036777;28;20029;-73
2022/12/09 06:12:32;;;;;;;25.95;17.10;;;;;;;;;;5034145;28;20083;-73
2022/12/09 06:14:58;;;;;;;25.73;17.10;;;;;;;;;;5030402;28;20028;-74
2022/12/09 06:17:24;;;;;;;26.88;16.73;;;;;;;;;;5029425;28;20039;-73
2022/12/09 06:19:50;;;;;;;26.25;16.55;;;;;;;;;;5028879;28;20025;-73
2022/12/09 06:22:16;;;;;;;25.67;16.48;;;;;;;;;;5030454;28;20041;-74
2022/12/09 06:24:42;;;;;;;22.75;14.77;;;;;;;;;;5037045;28;20032;-73
2022/12/09 06:27:08;;;;;;;23.75;15.82;;;;;;;;;;5035194;28;20032;-73
2022/12/09 06:29:34;;;;;;;26.90;18.02;;;;;;;;;;5036278;28;20106;-73
2022/12/09 06:32:00;;;;;;;22.80;15.75;;;;;;;;;;5031008;28;20396;-73
2022/12/09 06:34:28;;;;;;;28.60;17.20;;;;;;;;;;5035307;28;20033;-73
2022/12/09 06:36:54;;;;;;;24.13;18.08;;;;;;;;;;5036510;28;20064;-73
2022/12/09 06:39:20;;;;;;;21.88;15.85;;;;;;;;;;5037374;28;20111;-73
2022/12/09 06:41:46;;;;;;;26.27;15.88;;;;;;;;;;5033252;28;20037;-73
2022/12/09 06:44:12;;;;;;;25.80;16.58;;;;;;;;;;5040571;28;20071;-73
2022/12/09 06:46:38;;;;;;;28.40;17.30;;;;;;;;;;5032373;28;20044;-73
2022/12/09 06:49:04;;;;;;;27.75;18.30;;;;;;;;;;5033170;28;20121;-73
2022/12/09 06:51:31;;;;;;;29.45;18.95;;;;;;;;;;5036772;28;20139;-73
2022/12/09 06:53:57;;;;;;;32.40;19.27;;;;;;;;;;5034087;28;20060;-73
2022/12/09 06:56:23;;;;;;;33.80;19.92;;;;;;;;;;5037852;28;20124;-73
2022/12/09 06:58:49;;;;;;;27.33;16.80;;;;;;;;;;5031636;28;20041;-73
2022/12/09 07:01:16;;;;;;;30.25;19.15;;;;;;;;;;5036610;28;20045;-73
2022/12/09 07:03:43;;;;;;;28.17;18.52;;;;;;;;;;5033892;28;20095;-73
2022/12/09 07:06:24;;;;;;;24.80;17.17;;;;;;;;;;5038070;28;20685;-73
2022/12/09 07:08:50;;;;;;;29.23;18.23;;;;;;;;;;5034542;28;20029;-73
2022/12/09 07:11:16;;;;;;;28.13;17.67;;;;;;;;;;5035517;28;20044;-73
2022/12/09 07:13:42;;;;;;;23.45;16.98;;;;;;;;;;5031077;28;20035;-73
2022/12/09 07:16:08;;;;;;;22.95;15.73;;;;;;;;;;5037661;28;20037;-73
2022/12/09 07:18:34;;;;;;;33.72;20.27;;;;;;;;;;5033592;28;20021;-73
2022/12/09 07:21:10;;;;;;;33.55;20.83;;;;;;;;;;5034996;28;20044;-73
2022/12/09 07:23:36;;;;;;;31.98;20.85;;;;;;;;;;5034609;28;20063;-73
2022/12/09 07:26:04;;;;;;;36.15;22.02;;;;;;;;;;5036531;28;20540;-73
2022/12/09 07:28:30;;;;;;;28.35;19.00;;;;;;;;;;5037347;28;20028;-72
2022/12/09 07:30:56;;;;;;;29.60;19.60;;;;;;;;;;5037692;28;20877;-73
2022/12/09 07:33:22;;;;;;;33.95;18.92;;;;;;;;;;5034826;28;20029;-73
2022/12/09 07:35:48;;;;;;;37.95;19.80;;;;;;;;;;5036183;28;20033;-73
2022/12/09 07:38:14;;;;;;;30.83;17.75;;;;;;;;;;5037162;28;20025;-73
2022/12/09 07:40:40;;;;;;;32.05;18.42;;;;;;;;;;5036158;28;20064;-73
2022/12/09 07:43:06;;;;;;;36.60;19.52;;;;;;;;;;5039373;28;20760;-73
2022/12/09 07:45:35;;;;;;;27.65;16.63;;;;;;;;;;5037316;28;20115;-73
2022/12/09 07:48:02;;;;;;;27.20;17.02;;;;;;;;;;5041200;28;20521;-73
2022/12/09 07:50:28;;;;;;;27.50;16.42;;;;;;;;;;5039025;28;20057;-73
2022/12/09 07:52:53;;;;;;;25.42;17.40;;;;;;;;;;5038979;28;20036;-73
2022/12/09 07:55:20;;;;;;;22.13;13.98;;;;;;;;;;5043052;28;20036;-73
2022/12/09 07:57:46;;;;;;;26.35;15.55;;;;;;;;;;5039741;28;20040;-73
2022/12/09 08:00:12;;;;;;;26.08;14.88;;;;;;;;;;5040617;28;20029;-73
2022/12/09 08:02:38;;;;;;;23.05;15.32;;;;;;;;;;5041641;28;20467;-73
2022/12/09 08:05:04;;;;;;;26.85;16.60;;;;;;;;;;5036666;28;20033;-73
2022/12/09 08:07:30;;;;;;;37.67;20.77;;;;;;;;;;5026253;28;20041;-73
2022/12/09 08:09:56;;;;;;;36.05;18.55;;;;;;;;;;5038670;28;20037;-73
2022/12/09 08:12:23;;;;;;;31.33;18.77;;;;;;;;;;5039670;28;20510;-73
2022/12/09 08:14:49;;;;;;;32.42;17.08;;;;;;;;;;5040813;28;20036;-73
2022/12/09 08:17:15;;;;;;;27.95;17.08;;;;;;;;;;5040523;28;20038;-73
2022/12/09 08:19:41;;;;;;;31.55;17.45;;;;;;;;;;5037649;28;20478;-73
2022/12/09 08:22:07;;;;;;;26.48;16.48;;;;;;;;;;5036862;28;20044;-72
2022/12/09 08:24:33;;;;;;;31.33;16.27;;;;;;;;;;5041216;28;20041;-73
2022/12/09 08:26:59;;;;;;;25.48;15.07;;;;;;;;;;5039763;28;20717;-73
2022/12/09 08:29:25;;;;;;;25.77;15.73;;;;;;;;;;5037099;28;20322;-73
2022/12/09 08:31:51;;;;;;;27.50;16.27;;;;;;;;;;5040717;28;20037;-73
2022/12/09 08:34:17;;;;;;;27.77;16.33;;;;;;;;;;5035771;28;20040;-73
2022/12/09 08:36:43;;;;;;;26.52;15.60;;;;;;;;;;5038265;28;20033;-73
2022/12/09 08:39:10;;;;;;;26.25;15.13;;;;;;;;;;5033520;28;20830;-73
2022/12/09 08:41:36;;;;;;;31.42;17.67;;;;;;;;;;5039851;28;20041;-73
2022/12/09 08:44:06;;;;;;;27.63;15.35;;;;;;;;;;5037427;28;20040;-73
2022/12/09 08:46:33;;;;;;;23.33;14.02;;;;;;;;;;5037504;28;20037;-73
2022/12/09 08:49:02;;;;;;;24.85;14.18;;;;;;;;;;5036560;28;20045;-73
2022/12/09 08:51:29;;;;;;;22.05;13.05;;;;;;;;;;5038187;28;20041;-73
2022/12/09 08:53:55;;;;;;;25.23;13.48;;;;;;;;;;5043926;28;20057;-73
2022/12/09 08:56:21;;;;;;;29.63;17.42;;;;;;;;;;5039418;28;20709;-73
2022/12/09 08:58:47;;;;;;;27.67;19.48;;;;;;;;;;5039950;28;20040;-73
2022/12/09 09:01:14;;;;;;;32.78;18.67;;;;;;;;;;5039034;28;20041;-73
2022/12/09 09:03:40;;;;;;;35.70;19.98;;;;;;;;;;5038429;28;20034;-73
2022/12/09 09:06:06;;;;;;;28.85;17.23;;;;;;;;;;5036642;28;20037;-73
2022/12/09 09:08:32;;;;;;;31.60;18.63;;;;;;;;;;5040854;28;20692;-73
2022/12/09 09:10:59;;;;;;;29.80;16.67;;;;;;;;;;5037393;28;20037;-73
2022/12/09 09:13:25;;;;;;;30.17;16.50;;;;;;;;;;5035730;28;20036;-73
2022/12/09 09:15:52;;;;;;;26.25;15.48;;;;;;;;;;5035420;28;20029;-73
2022/12/09 09:18:18;;;;;;;27.15;16.60;;;;;;;;;;5040508;28;20476;-73
2022/12/09 09:20:46;;;;;;;22.83;13.00;;;;;;;;;;5039372;28;20029;-73
2022/12/09 09:23:12;;;;;;;21.70;13.57;;;;;;;;;;5040682;28;20036;-73
2022/12/09 09:25:42;;;;;;;20.30;14.27;;;;;;;;;;5040283;28;20029;-73
2022/12/09 09:28:08;;;;;;;22.80;15.07;;;;;;;;;;5032056;28;20507;-73
2022/12/09 09:30:34;;;;;;;25.73;14.10;;;;;;;;;;5035126;28;20075;-73
2022/12/09 09:33:00;;;;;;;29.67;15.63;;;;;;;;;;5035975;28;20033;-73
2022/12/09 09:35:26;;;;;;;26.88;14.10;;;;;;;;;;5035126;28;20033;-73
2022/12/09 09:37:53;;;;;;;21.77;13.80;;;;;;;;;;5039987;28;20604;-73
2022/12/09 09:40:20;;;;;;;19.15;13.15;;;;;;;;;;5038380;28;20037;-73
2022/12/09 09:42:48;;;;;;;22.10;13.35;;;;;;;;;;5033313;28;20072;-73
2022/12/09 09:45:17;;;;;;;29.08;16.80;;;;;;;;;;5036933;28;20057;-73
2022/12/09 09:47:45;;;;;;;29.13;17.35;;;;;;;;;;5040467;28;20033;-73
2022/12/09 09:50:30;;;;;;;36.17;20.60;;;;;;;;;;5040081;28;20087;-73
2022/12/09 09:52:57;;;;;;;27.52;16.33;;;;;;;;;;5034849;28;20052;-73
2022/12/09 09:55:31;;;;;;;31.42;18.90;;;;;;;;;;5038019;28;20067;-73
2022/12/09 09:58:04;;;;;;;27.90;16.88;;;;;;;;;;5035595;28;20025;-73
2022/12/09 10:00:34;;;;;;;20.60;14.30;;;;;;;;;;5037914;28;20553;-73
2022/12/09 10:03:11;;;;;;;23.90;13.73;;;;;;;;;;5037794;28;20035;-73
2022/12/09 10:05:49;;;;;;;20.85;13.48;;;;;;;;;;5035822;28;20064;-73
2022/12/09 10:08:21;;;;;;;24.95;14.90;;;;;;;;;;5039301;28;20037;-73
2022/12/09 10:11:06;;;;;;;24.92;15.27;;;;;;;;;;5034127;28;20614;-73
2022/12/09 10:13:53;;;;;;;22.77;14.57;;;;;;;;;;5036258;28;20484;-73
2022/12/09 10:16:19;;;;;;;22.92;14.98;;;;;;;;;;4993595;28;20041;-73
2022/12/09 10:18:47;;;;;;;23.02;14.77;;;;;;;;;;5037242;28;20429;-73
2022/12/09 10:21:18;;;;;;;24.27;15.23;;;;;;;;;;5033485;28;20091;-73
2022/12/09 10:23:45;;;;;;;20.98;15.32;;;;;;;;;;5035237;28;20142;-73
2022/12/09 10:26:15;;;;;;;23.48;16.42;;;;;;;;;;5039601;28;20056;-73
2022/12/09 10:28:43;;;;;;;33.40;19.67;;;;;;;;;;5037498;28;20061;-73
2022/12/09 10:31:10;;;;;;;36.42;19.63;;;;;;;;;;5036491;28;20033;-73
2022/12/09 10:33:37;;;;;;;34.67;20.63;;;;;;;;;;5034958;28;20052;-73
2022/12/09 10:36:04;;;;;;;40.13;21.27;;;;;;;;;;5037576;28;20099;-73
2022/12/09 10:38:30;;;;;;;36.17;21.38;;;;;;;;;;5033741;28;20048;-73
2022/12/09 10:41:05;;;;;;;33.85;22.05;;;;;;;;;;5035465;28;20559;-73
2022/12/09 10:46:05;;;;;;;34.67;24.02;;;;;;;;;;5036755;28;20546;-73
2022/12/09 10:48:36;;;;;;;36.90;23.73;;;;;;;;;;5021846;28;20471;-72
2022/12/09 10:51:20;;;;;;;35.95;24.17;;;;;;;;;;5036709;28;20510;-73
2022/12/09 10:53:54;;;;;;;36.25;22.42;;;;;;;;;;5035750;28;20036;-72
2022/12/09 10:56:23;;;;;;;33.00;20.63;;;;;;;;;;5037241;28;20397;-72
2022/12/09 10:58:49;;;;;;;37.35;21.08;;;;;;;;;;5035270;28;20505;-73
2022/12/09 11:01:15;;;;;;;36.60;18.85;;;;;;;;;;5040447;28;20555;-73
2022/12/09 11:03:47;;;;;;;37.60;19.42;;;;;;;;;;5039113;28;20717;-73
2022/12/09 11:06:22;;;;;;;31.98;17.65;;;;;;;;;;5036220;28;20044;-73
2022/12/09 11:08:58;;;;;;;30.83;16.95;;;;;;;;;;5033116;28;20152;-73
2022/12/09 11:11:38;;;;;;;29.40;17.85;;;;;;;;;;5035709;28;20059;-73
2022/12/09 11:14:21;;;;;;;27.27;17.98;;;;;;;;;;5035820;28;20028;-72
2022/12/09 11:16:47;;;;;;;25.67;17.58;;;;;;;;;;5036896;28;20025;-73
2022/12/09 11:19:13;;;;;;;29.35;17.42;;;;;;;;;;5035102;28;20033;-73
2022/12/09 11:21:39;;;;;;;34.08;20.20;;;;;;;;;;5037492;28;20662;-73
2022/12/09 11:24:17;;;;;;;34.08;19.60;;;;;;;;;;5034556;28;20041;-73
2022/12/09 11:26:43;;;;;;;32.67;19.38;;;;;;;;;;5035621;28;20033;-73
2022/12/09 11:29:17;;;;;;;27.90;18.75;;;;;;;;;;5029420;28;20032;-72
2022/12/09 11:31:44;;;;;;;31.50;17.58;;;;;;;;;;5033406;28;20029;-73
2022/12/09 11:34:15;;;;;;;35.50;21.95;;;;;;;;;;5035133;28;20459;-72
2022/12/09 11:36:49;;;;;;;39.33;22.10;;;;;;;;;;5037064;28;20080;-73
2022/12/09 11:39:18;;;;;;;34.75;21.30;;;;;;;;;;5037720;28;20047;-73
2022/12/09 11:42:13;;;;;;;33.25;20.00;;;;;;;;;;5032107;28;20037;-73
2022/12/09 11:44:42;;;;;;;30.83;19.90;;;;;;;;;;5033016;28;20797;-73
2022/12/09 11:47:13;;;;;;;39.50;20.38;;;;;;;;;;5037795;28;20477;-73
2022/12/09 11:49:49;;;;;;;33.22;18.77;;;;;;;;;;5032402;28;20103;-73
2022/12/09 11:52:15;;;;;;;37.35;22.45;;;;;;;;;;5036805;28;20036;-73
2022/12/09 11:54:48;;;;;;;31.70;20.52;;;;;;;;;;5038530;28;20040;-73
2022/12/09 11:57:25;;;;;;;35.20;19.48;;;;;;;;;;5036559;28;20511;-73
2022/12/09 11:59:53;;;;;;;33.08;20.17;;;;;;;;;;5033369;28;20044;-73
2022/12/09 12:02:29;;;;;;;36.03;19.30;;;;;;;;;;5037555;28;20049;-73
2022/12/09 12:05:00;;;;;;;29.60;17.42;;;;;;;;;;5035188;28;20040;-73
2022/12/09 12:07:37;;;;;;;33.38;18.92;;;;;;;;;;5036629;28;20083;-73
2022/12/09 12:10:05;;;;;;;27.25;16.80;;;;;;;;;;5032271;28;20412;-73
2022/12/09 12:13:00;;;;;;;35.97;20.15;;;;;;;;;;5034772;28;20073;-73
2022/12/09 12:15:29;;;;;;;38.28;20.05;;;;;;;;;;5014662;28;20049;-73
2022/12/09 12:17:56;;;;;;;35.60;23.58;;;;;;;;;;5031815;28;20040;-73
2022/12/09 12:20:31;;;;;;;36.05;22.73;;;;;;;;;;5038438;28;20040;-73
2022/12/09 12:22:57;;;;;;;31.85;22.17;;;;;;;;;;5032322;28;20465;-73
2022/12/09 12:25:26;;;;;;;33.20;19.98;;;;;;;;;;5031385;28;20056;-73
2022/12/09 12:27:52;;;;;;;31.65;21.23;;;;;;;;;;5032737;28;20108;-73
2022/12/09 12:30:20;;;;;;;33.30;20.77;;;;;;;;;;5039232;28;20122;-73
2022/12/09 12:32:52;;;;;;;38.20;26.67;;;;;;;;;;5036518;28;20041;-73
2022/12/09 12:35:29;;;;;;;33.90;22.98;;;;;;;;;;5037278;28;20076;-73
2022/12/09 12:38:14;;;;;;;30.98;21.38;;;;;;;;;;5038106;28;20029;-72
2022/12/09 12:40:46;;;;;;;36.38;23.42;;;;;;;;;;5035583;28;20065;-73
2022/12/09 12:46:23;;;;;;;39.47;25.80;;;;;;;;;;5036629;28;20047;-73
2022/12/09 12:49:08;;;;;;;45.03;28.20;;;;;;;;;;5038290;28;20029;-72
2022/12/09 12:51:44;;;;;;;42.42;27.90;;;;;;;;;;5036767;28;20992;-73
2022/12/09 12:54:36;;;;;;;41.75;27.58;;;;;;;;;;5037550;28;20495;-73
2022/12/09 12:57:07;;;;;;;35.35;22.45;;;;;;;;;;5031363;28;20451;-73
2022/12/09 12:59:33;;;;;;;40.38;27.40;;;;;;;;;;5033821;28;20026;-73
2022/12/09 13:02:18;;;;;;;36.40;23.40;;;;;;;;;;5036998;28;20688;-73
2022/12/09 13:05:02;;;;;;;41.35;27.95;;;;;;;;;;5040683;28;20773;-72
2022/12/09 13:07:29;;;;;;;37.35;24.60;;;;;;;;;;5040822;28;20072;-73
2022/12/09 13:09:58;;;;;;;38.20;25.15;;;;;;;;;;5037543;28;20706;-73
2022/12/09 13:15:15;;;;;;;35.88;23.35;;;;;;;;;;5039914;28;20039;-73
2022/12/09 13:17:41;;;;;;;31.25;21.35;;;;;;;;;;5039316;28;20037;-73
2022/12/09 13:20:12;;;;;;;30.50;21.67;;;;;;;;;;5037684;28;20029;-73
2022/12/09 13:22:51;;;;;;;32.83;21.80;;;;;;;;;;5037290;28;20483;-73
2022/12/09 13:25:41;;;;;;;38.60;25.00;;;;;;;;;;5034561;28;20034;-73
2022/12/09 13:28:20;;;;;;;32.78;22.23;;;;;;;;;;5037745;28;20148;-73
2022/12/09 13:30:57;;;;;;;30.35;20.52;;;;;;;;;;5036526;28;20086;-73
2022/12/09 13:33:30;;;;;;;36.15;23.98;;;;;;;;;;5039876;28;20029;-72
2022/12/09 13:36:15;;;;;;;40.08;26.83;;;;;;;;;;5034899;28;20439;-73
2022/12/09 13:38:42;;;;;;;33.15;22.27;;;;;;;;;;5042124;28;20025;-73
2022/12/09 13:41:26;;;;;;;41.72;26.70;;;;;;;;;;5034641;28;20120;-73
2022/12/09 13:43:53;;;;;;;57.90;34.05;;;;;;;;;;5037597;28;20044;-73
2022/12/09 13:46:23;;;;;;;48.53;28.73;;;;;;;;;;5036505;28;20072;-73
2022/12/09 13:48:49;;;;;;;49.22;29.58;;;;;;;;;;5039900;28;20021;-73
2022/12/09 13:51:16;;;;;;;52.72;31.98;;;;;;;;;;5038420;28;20055;-73
2022/12/09 13:53:52;;;;;;;55.55;35.03;;;;;;;;;;5037015;28;20035;-73
2022/12/09 13:56:20;;;;;;;49.28;27.80;;;;;;;;;;5039023;28;20053;-73
2022/12/09 13:58:49;;;;;;;43.45;27.98;;;;;;;;;;5035334;28;20040;-73
2022/12/09 14:01:19;;;;;;;50.40;28.15;;;;;;;;;;5035819;28;20045;-74
2022/12/09 14:03:48;;;;;;;43.83;24.48;;;;;;;;;;5038282;28;20039;-73
2022/12/09 14:06:31;;;;;;;38.95;22.75;;;;;;;;;;5034249;28;20075;-73
2022/12/09 14:09:00;;;;;;;45.83;24.35;;;;;;;;;;5035905;28;20033;-73
2022/12/09 14:11:46;;;;;;;43.28;27.38;;;;;;;;;;5039639;28;20065;-73
2022/12/09 14:14:18;;;;;;;45.30;26.80;;;;;;;;;;5035705;28;20112;-73
2022/12/09 14:16:44;;;;;;;44.00;26.48;;;;;;;;;;5038236;28;20048;-73
2022/12/09 14:19:26;;;;;;;39.67;23.27;;;;;;;;;;5039711;28;20032;-73
2022/12/09 14:22:15;;;;;;;40.40;23.00;;;;;;;;;;5034264;28;20517;-73
2022/12/09 14:24:41;;;;;;;41.60;21.52;;;;;;;;;;5033660;28;20025;-73
2022/12/09 14:27:09;;;;;;;36.60;21.48;;;;;;;;;;5036186;28;20067;-73
2022/12/09 14:29:41;;;;;;;30.05;20.13;;;;;;;;;;5037182;28;20033;-73
2022/12/09 14:32:20;;;;;;;39.63;22.73;;;;;;;;;;5038387;28;20088;-73
2022/12/09 14:34:48;;;;;;;34.83;20.83;;;;;;;;;;5034798;28;20101;-73